sensor_id;sensor_type;location;lat;lon;timestamp;pressure;altitude;pressure_sealevel;temperature;humidity
61345;BME280;47216;42.656;23.232;2023-06-24T00:02:18;93933.00;;;20.00;79.55
61345;BME280;47216;42.656;23.232;2023-06-24T00:07:48;93938.59;;;19.99;79.91
61345;BME280;47216;42.656;23.232;2023-06-24T00:10:20;93959.84;;;20.07;80.17
61345;BME280;47216;42.656;23.232;2023-06-24T00:13:22;93954.25;;;20.09;79.66
61345;BME280;47216;42.656;23.232;2023-06-24T00:16:05;93955.44;;;20.03;79.64
61345;BME280;47216;42.656;23.232;2023-06-24T00:18:44;93943.69;;;19.86;80.46
61345;BME280;47216;42.656;23.232;2023-06-24T00:24:22;93955.72;;;19.92;80.31
61345;BME280;47216;42.656;23.232;2023-06-24T00:27:12;93952.41;;;19.87;80.36
61345;BME280;47216;42.656;23.232;2023-06-24T00:29:59;93951.94;;;19.85;80.31
61345;BME280;47216;42.656;23.232;2023-06-24T00:32:48;93938.38;;;19.64;80.46
61345;BME280;47216;42.656;23.232;2023-06-24T00:35:32;93949.56;;;19.61;80.76
61345;BME280;47216;42.656;23.232;2023-06-24T00:38:22;93964.06;;;19.63;81.12
61345;BME280;47216;42.656;23.232;2023-06-24T00:41:12;93956.31;;;19.67;81.18
61345;BME280;47216;42.656;23.232;2023-06-24T00:43:52;93954.72;;;19.66;81.34
61345;BME280;47216;42.656;23.232;2023-06-24T00:46:43;93955.44;;;19.71;81.12
61345;BME280;47216;42.656;23.232;2023-06-24T00:49:34;93931.81;;;19.61;81.07
61345;BME280;47216;42.656;23.232;2023-06-24T00:52:13;93939.19;;;19.64;81.10
61345;BME280;47216;42.656;23.232;2023-06-24T00:54:51;93922.94;;;19.57;81.33
61345;BME280;47216;42.656;23.232;2023-06-24T00:57:30;93922.22;;;19.43;81.25
61345;BME280;47216;42.656;23.232;2023-06-24T01:00:20;93936.16;;;19.35;82.06
61345;BME280;47216;42.656;23.232;2023-06-24T01:02:53;93948.63;;;19.34;82.18
61345;BME280;47216;42.656;23.232;2023-06-24T01:05:49;93941.34;;;19.40;82.51
61345;BME280;47216;42.656;23.232;2023-06-24T01:08:23;93935.91;;;19.45;82.26
61345;BME280;47216;42.656;23.232;2023-06-24T01:11:05;93928.47;;;19.47;82.25
61345;BME280;47216;42.656;23.232;2023-06-24T01:13:53;93930.22;;;19.51;81.54
61345;BME280;47216;42.656;23.232;2023-06-24T01:16:40;93935.34;;;19.48;81.68
61345;BME280;47216;42.656;23.232;2023-06-24T01:29:53;93941.31;;;19.17;83.21
61345;BME280;47216;42.656;23.232;2023-06-24T01:32:44;93934.88;;;19.09;83.30
61345;BME280;47216;42.656;23.232;2023-06-24T01:38:34;93945.41;;;19.23;82.84
61345;BME280;47216;42.656;23.232;2023-06-24T01:41:16;93948.34;;;19.22;82.85
61345;BME280;47216;42.656;23.232;2023-06-24T01:47:11;93963.38;;;19.35;82.20
61345;BME280;47216;42.656;23.232;2023-06-24T01:50:12;93968.25;;;19.42;82.07
61345;BME280;47216;42.656;23.232;2023-06-24T01:53:07;93970.53;;;19.35;81.75
61345;BME280;47216;42.656;23.232;2023-06-24T01:55:51;93967.13;;;19.34;81.82
61345;BME280;47216;42.656;23.232;2023-06-24T01:58:49;93967.28;;;19.38;81.79
61345;BME280;47216;42.656;23.232;2023-06-24T02:01:37;93966.31;;;19.34;81.67
61345;BME280;47216;42.656;23.232;2023-06-24T02:04:23;93931.88;;;19.02;81.61
61345;BME280;47216;42.656;23.232;2023-06-24T02:07:01;93970.47;;;19.26;82.00
61345;BME280;47216;42.656;23.232;2023-06-24T02:09:58;93969.69;;;19.25;82.15
61345;BME280;47216;42.656;23.232;2023-06-24T02:12:53;93976.66;;;19.21;82.34
61345;BME280;47216;42.656;23.232;2023-06-24T02:18:40;93974.97;;;19.25;82.47
61345;BME280;47216;42.656;23.232;2023-06-24T02:21:27;93977.50;;;19.30;82.23
61345;BME280;47216;42.656;23.232;2023-06-24T02:24:24;93975.34;;;19.33;82.37
61345;BME280;47216;42.656;23.232;2023-06-24T02:30:24;94003.34;;;19.34;81.54
61345;BME280;47216;42.656;23.232;2023-06-24T02:33:20;94003.47;;;19.28;81.51
61345;BME280;47216;42.656;23.232;2023-06-24T02:36:24;94011.88;;;19.30;81.88
61345;BME280;47216;42.656;23.232;2023-06-24T02:39:20;94008.84;;;19.23;81.67
61345;BME280;47216;42.656;23.232;2023-06-24T02:41:54;94005.72;;;19.21;82.22
61345;BME280;47216;42.656;23.232;2023-06-24T02:44:25;94002.56;;;19.33;81.92
61345;BME280;47216;42.656;23.232;2023-06-24T02:47:17;94002.03;;;19.45;81.81
61345;BME280;47216;42.656;23.232;2023-06-24T02:49:58;94003.09;;;19.58;81.26
61345;BME280;47216;42.656;23.232;2023-06-24T02:52:50;94006.56;;;19.67;80.97
61345;BME280;47216;42.656;23.232;2023-06-24T02:55:34;93998.84;;;19.70;81.30
61345;BME280;47216;42.656;23.232;2023-06-24T02:58:24;94003.84;;;19.72;81.28
61345;BME280;47216;42.656;23.232;2023-06-24T03:01:07;94002.44;;;19.75;81.36
61345;BME280;47216;42.656;23.232;2023-06-24T03:03:54;94001.63;;;19.88;80.87
61345;BME280;47216;42.656;23.232;2023-06-24T03:06:25;94003.16;;;19.89;80.91
61345;BME280;47216;42.656;23.232;2023-06-24T03:09:07;93996.97;;;19.93;80.78
61345;BME280;47216;42.656;23.232;2023-06-24T03:12:01;93993.41;;;19.98;80.61
61345;BME280;47216;42.656;23.232;2023-06-24T03:14:54;93998.00;;;20.06;80.33
61345;BME280;47216;42.656;23.232;2023-06-24T03:17:25;94000.69;;;20.15;80.22
61345;BME280;47216;42.656;23.232;2023-06-24T03:20:06;94006.94;;;20.19;80.03
61345;BME280;47216;42.656;23.232;2023-06-24T03:22:48;94016.50;;;20.29;79.81
61345;BME280;47216;42.656;23.232;2023-06-24T03:25:24;94017.44;;;20.33;79.49
61345;BME280;47216;42.656;23.232;2023-06-24T03:28:01;94028.16;;;20.28;79.12
61345;BME280;47216;42.656;23.232;2023-06-24T03:30:54;94032.16;;;20.17;79.13
61345;BME280;47216;42.656;23.232;2023-06-24T03:33:25;94035.84;;;20.07;79.63
61345;BME280;47216;42.656;23.232;2023-06-24T03:36:16;94043.59;;;20.03;79.65
61345;BME280;47216;42.656;23.232;2023-06-24T03:38:54;94047.31;;;20.02;79.87
61345;BME280;47216;42.656;23.232;2023-06-24T03:41:25;94039.56;;;20.06;79.84
61345;BME280;47216;42.656;23.232;2023-06-24T03:44:09;94041.19;;;19.93;79.94
61345;BME280;47216;42.656;23.232;2023-06-24T03:46:54;94042.38;;;19.87;80.69
61345;BME280;47216;42.656;23.232;2023-06-24T03:49:25;94054.41;;;19.93;80.82
61345;BME280;47216;42.656;23.232;2023-06-24T03:52:14;94054.91;;;19.95;80.92
61345;BME280;47216;42.656;23.232;2023-06-24T03:54:55;94054.50;;;20.02;80.88
61345;BME280;47216;42.656;23.232;2023-06-24T03:57:41;94056.81;;;20.03;80.40
61345;BME280;47216;42.656;23.232;2023-06-24T04:00:25;94042.38;;;20.09;80.27
61345;BME280;47216;42.656;23.232;2023-06-24T04:03:17;94044.41;;;20.12;80.14
61345;BME280;47216;42.656;23.232;2023-06-24T04:06:00;94021.75;;;19.98;80.56
61345;BME280;47216;42.656;23.232;2023-06-24T04:08:55;94049.78;;;20.21;80.39
61345;BME280;47216;42.656;23.232;2023-06-24T04:11:25;94056.31;;;20.24;79.88
61345;BME280;47216;42.656;23.232;2023-06-24T04:14:12;94057.66;;;20.35;79.77
61345;BME280;47216;42.656;23.232;2023-06-24T04:16:53;94040.19;;;20.34;80.20
61345;BME280;47216;42.656;23.232;2023-06-24T04:19:25;94009.09;;;20.17;80.13
61345;BME280;47216;42.656;23.232;2023-06-24T04:21:56;94039.03;;;20.49;80.34
61345;BME280;47216;42.656;23.232;2023-06-24T04:24:47;94030.78;;;20.50;80.27
61345;BME280;47216;42.656;23.232;2023-06-24T04:27:25;94030.41;;;20.66;80.22
61345;BME280;47216;42.656;23.232;2023-06-24T04:29:58;94032.44;;;20.69;80.27
61345;BME280;47216;42.656;23.232;2023-06-24T04:32:44;94025.44;;;20.73;80.38
61345;BME280;47216;42.656;23.232;2023-06-24T04:35:25;94024.53;;;20.77;80.65
61345;BME280;47216;42.656;23.232;2023-06-24T04:38:12;94029.84;;;20.86;80.62
61345;BME280;47216;42.656;23.232;2023-06-24T04:40:53;94032.53;;;20.95;80.61
61345;BME280;47216;42.656;23.232;2023-06-24T04:43:31;94032.56;;;21.04;80.38
61345;BME280;47216;42.656;23.232;2023-06-24T04:46:10;94031.78;;;21.12;80.27
61345;BME280;47216;42.656;23.232;2023-06-24T04:48:56;94042.09;;;21.22;79.86
61345;BME280;47216;42.656;23.232;2023-06-24T04:51:51;94044.78;;;21.31;79.64
61345;BME280;47216;42.656;23.232;2023-06-24T04:54:32;94047.34;;;21.45;79.31
61345;BME280;47216;42.656;23.232;2023-06-24T04:57:36;94049.66;;;21.55;79.01
61345;BME280;47216;42.656;23.232;2023-06-24T05:03:30;94044.22;;;21.69;79.07
61345;BME280;47216;42.656;23.232;2023-06-24T05:06:28;94045.94;;;21.82;78.23
61345;BME280;47216;42.656;23.232;2023-06-24T05:09:20;94047.97;;;21.94;77.26
61345;BME280;47216;42.656;23.232;2023-06-24T05:11:56;94047.97;;;22.02;76.38
61345;BME280;47216;42.656;23.232;2023-06-24T05:14:56;94039.97;;;22.11;76.11
61345;BME280;47216;42.656;23.232;2023-06-24T05:17:38;94037.03;;;22.21;76.27
61345;BME280;47216;42.656;23.232;2023-06-24T05:20:19;94027.94;;;22.31;75.68
61345;BME280;47216;42.656;23.232;2023-06-24T05:22:58;94036.81;;;22.44;75.45
61345;BME280;47216;42.656;23.232;2023-06-24T05:25:37;94029.25;;;22.55;75.15
61345;BME280;47216;42.656;23.232;2023-06-24T05:28:21;94020.03;;;22.61;74.01
61345;BME280;47216;42.656;23.232;2023-06-24T05:31:05;94019.34;;;22.73;73.58
61345;BME280;47216;42.656;23.232;2023-06-24T05:33:51;94023.41;;;22.79;72.98
61345;BME280;47216;42.656;23.232;2023-06-24T05:36:46;94033.19;;;22.87;72.30
61345;BME280;47216;42.656;23.232;2023-06-24T05:39:46;94027.53;;;22.97;72.29
61345;BME280;47216;42.656;23.232;2023-06-24T05:42:25;94033.44;;;23.12;73.21
61345;BME280;47216;42.656;23.232;2023-06-24T05:45:19;94025.25;;;23.17;73.22
61345;BME280;47216;42.656;23.232;2023-06-24T05:48:06;94028.66;;;23.26;71.94
61345;BME280;47216;42.656;23.232;2023-06-24T05:51:01;94028.78;;;23.30;71.86
61345;BME280;47216;42.656;23.232;2023-06-24T05:56:51;94021.03;;;23.45;70.38
61345;BME280;47216;42.656;23.232;2023-06-24T05:59:28;94015.97;;;23.53;69.49
61345;BME280;47216;42.656;23.232;2023-06-24T06:02:21;93987.81;;;23.43;69.15
61345;BME280;47216;42.656;23.232;2023-06-24T06:07:54;94000.78;;;23.74;68.81
61345;BME280;47216;42.656;23.232;2023-06-24T06:10:48;94011.00;;;23.84;68.02
61345;BME280;47216;42.656;23.232;2023-06-24T06:13:52;94015.03;;;23.90;68.34
61345;BME280;47216;42.656;23.232;2023-06-24T06:16:24;94011.09;;;23.97;67.27
61345;BME280;47216;42.656;23.232;2023-06-24T06:19:07;94019.56;;;24.11;67.92
61345;BME280;47216;42.656;23.232;2023-06-24T06:21:47;94014.03;;;24.16;68.20
61345;BME280;47216;42.656;23.232;2023-06-24T06:24:35;94020.72;;;24.22;67.26
61345;BME280;47216;42.656;23.232;2023-06-24T06:27:15;94026.16;;;24.26;67.04
61345;BME280;47216;42.656;23.232;2023-06-24T06:29:51;94020.88;;;24.38;66.97
61345;BME280;47216;42.656;23.232;2023-06-24T06:32:34;94028.13;;;24.50;66.70
61345;BME280;47216;42.656;23.232;2023-06-24T06:35:17;94032.78;;;24.53;65.75
61345;BME280;47216;42.656;23.232;2023-06-24T06:37:45;94028.03;;;24.59;65.70
61345;BME280;47216;42.656;23.232;2023-06-24T06:40:19;94023.94;;;24.73;66.54
61345;BME280;47216;42.656;23.232;2023-06-24T06:42:49;94035.50;;;24.78;65.75
61345;BME280;47216;42.656;23.232;2023-06-24T06:45:49;94030.84;;;24.87;65.54
61345;BME280;47216;42.656;23.232;2023-06-24T06:48:33;94035.63;;;24.93;65.30
61345;BME280;47216;42.656;23.232;2023-06-24T06:51:18;94031.59;;;25.00;65.45
61345;BME280;47216;42.656;23.232;2023-06-24T06:54:17;94031.06;;;25.06;64.55
61345;BME280;47216;42.656;23.232;2023-06-24T06:56:50;94026.63;;;25.10;63.90
61345;BME280;47216;42.656;23.232;2023-06-24T06:59:42;94028.97;;;25.12;63.46
61345;BME280;47216;42.656;23.232;2023-06-24T07:02:26;94029.19;;;25.19;64.03
61345;BME280;47216;42.656;23.232;2023-06-24T07:05:04;94026.38;;;25.28;63.98
61345;BME280;47216;42.656;23.232;2023-06-24T07:07:36;94025.94;;;25.38;63.26
61345;BME280;47216;42.656;23.232;2023-06-24T07:10:05;94035.72;;;25.46;64.13
61345;BME280;47216;42.656;23.232;2023-06-24T07:12:40;94032.91;;;25.55;63.24
61345;BME280;47216;42.656;23.232;2023-06-24T07:15:27;94039.03;;;25.55;63.34
61345;BME280;47216;42.656;23.232;2023-06-24T07:18:08;94030.31;;;25.71;63.67
61345;BME280;47216;42.656;23.232;2023-06-24T07:20:40;94013.44;;;25.54;62.40
61345;BME280;47216;42.656;23.232;2023-06-24T07:23:34;94026.75;;;25.79;61.61
61345;BME280;47216;42.656;23.232;2023-06-24T07:26:10;94030.97;;;25.80;62.63
61345;BME280;47216;42.656;23.232;2023-06-24T07:28:48;94026.72;;;25.91;61.98
61345;BME280;47216;42.656;23.232;2023-06-24T07:31:37;94024.56;;;25.97;61.94
61345;BME280;47216;42.656;23.232;2023-06-24T07:34:16;94020.03;;;25.97;62.64
61345;BME280;47216;42.656;23.232;2023-06-24T07:37:10;93997.78;;;25.93;61.43
61345;BME280;47216;42.656;23.232;2023-06-24T07:39:54;94021.44;;;26.07;61.24
61345;BME280;47216;42.656;23.232;2023-06-24T07:42:38;94024.41;;;26.18;60.70
61345;BME280;47216;42.656;23.232;2023-06-24T07:45:37;94016.13;;;26.23;60.61
61345;BME280;47216;42.656;23.232;2023-06-24T07:48:19;94017.38;;;26.41;60.31
61345;BME280;47216;42.656;23.232;2023-06-24T07:50:59;94024.25;;;26.42;61.22
61345;BME280;47216;42.656;23.232;2023-06-24T07:53:40;94025.13;;;26.47;60.24
61345;BME280;47216;42.656;23.232;2023-06-24T07:56:26;94034.84;;;26.67;59.43
61345;BME280;47216;42.656;23.232;2023-06-24T07:59:06;94028.03;;;26.70;59.30
61345;BME280;47216;42.656;23.232;2023-06-24T08:01:45;94032.59;;;26.69;57.92
61345;BME280;47216;42.656;23.232;2023-06-24T08:04:26;94031.19;;;26.75;58.32
61345;BME280;47216;42.656;23.232;2023-06-24T08:07:10;94034.50;;;26.85;58.47
61345;BME280;47216;42.656;23.232;2023-06-24T08:10:02;94021.53;;;26.87;57.78
61345;BME280;47216;42.656;23.232;2023-06-24T08:12:44;94031.81;;;27.00;56.45
61345;BME280;47216;42.656;23.232;2023-06-24T08:15:37;94031.38;;;26.98;57.97
61345;BME280;47216;42.656;23.232;2023-06-24T08:18:09;94021.88;;;27.01;58.00
61345;BME280;47216;42.656;23.232;2023-06-24T08:20:49;94024.47;;;27.13;58.39
61345;BME280;47216;42.656;23.232;2023-06-24T08:23:42;94025.09;;;27.22;57.54
61345;BME280;47216;42.656;23.232;2023-06-24T08:29:38;94012.72;;;27.34;57.35
61345;BME280;47216;42.656;23.232;2023-06-24T08:32:15;94019.34;;;27.40;57.95
61345;BME280;47216;42.656;23.232;2023-06-24T08:34:46;94013.88;;;27.52;57.73
61345;BME280;47216;42.656;23.232;2023-06-24T08:37:22;94011.19;;;27.52;56.54
61345;BME280;47216;42.656;23.232;2023-06-24T08:39:58;94009.47;;;27.63;55.72
61345;BME280;47216;42.656;23.232;2023-06-24T08:42:34;94015.22;;;27.62;56.21
61345;BME280;47216;42.656;23.232;2023-06-24T08:45:18;94004.94;;;27.64;56.83
61345;BME280;47216;42.656;23.232;2023-06-24T08:48:06;94008.09;;;27.70;56.43
61345;BME280;47216;42.656;23.232;2023-06-24T08:50:43;93998.38;;;27.81;56.21
61345;BME280;47216;42.656;23.232;2023-06-24T08:53:15;93998.47;;;27.84;56.73
61345;BME280;47216;42.656;23.232;2023-06-24T08:56:08;93999.50;;;27.99;56.63
61345;BME280;47216;42.656;23.232;2023-06-24T08:58:42;94001.78;;;27.97;56.42
61345;BME280;47216;42.656;23.232;2023-06-24T09:01:36;93992.63;;;27.98;54.85
61345;BME280;47216;42.656;23.232;2023-06-24T09:04:16;94001.06;;;28.00;55.79
61345;BME280;47216;42.656;23.232;2023-06-24T09:07:12;93988.22;;;28.10;56.93
61345;BME280;47216;42.656;23.232;2023-06-24T09:09:46;93994.06;;;28.15;55.57
61345;BME280;47216;42.656;23.232;2023-06-24T09:12:41;93997.94;;;28.18;56.40
61345;BME280;47216;42.656;23.232;2023-06-24T09:15:18;93997.44;;;28.32;56.23
61345;BME280;47216;42.656;23.232;2023-06-24T09:18:07;93996.34;;;28.36;55.60
61345;BME280;47216;42.656;23.232;2023-06-24T09:20:47;94000.66;;;28.41;54.10
61345;BME280;47216;42.656;23.232;2023-06-24T09:23:45;94001.00;;;28.39;55.24
61345;BME280;47216;42.656;23.232;2023-06-24T09:26:18;93991.47;;;28.42;55.41
61345;BME280;47216;42.656;23.232;2023-06-24T09:31:47;94001.34;;;28.57;54.93
61345;BME280;47216;42.656;23.232;2023-06-24T09:34:18;94002.31;;;28.68;53.94
61345;BME280;47216;42.656;23.232;2023-06-24T09:36:59;93989.31;;;28.70;55.28
61345;BME280;47216;42.656;23.232;2023-06-24T09:39:48;93994.81;;;28.81;55.35
61345;BME280;47216;42.656;23.232;2023-06-24T09:42:28;93995.66;;;28.85;52.76
61345;BME280;47216;42.656;23.232;2023-06-24T09:45:12;93991.84;;;28.86;52.35
61345;BME280;47216;42.656;23.232;2023-06-24T09:47:49;93985.00;;;28.89;52.57
61345;BME280;47216;42.656;23.232;2023-06-24T09:50:45;93992.91;;;29.05;52.92
61345;BME280;47216;42.656;23.232;2023-06-24T09:53:19;93992.31;;;29.15;52.99
61345;BME280;47216;42.656;23.232;2023-06-24T09:56:13;93983.50;;;29.18;52.81
61345;BME280;47216;42.656;23.232;2023-06-24T09:58:47;93973.66;;;29.26;52.68
61345;BME280;47216;42.656;23.232;2023-06-24T10:01:24;93977.22;;;29.33;52.15
61345;BME280;47216;42.656;23.232;2023-06-24T10:04:09;93973.88;;;29.44;52.35
61345;BME280;47216;42.656;23.232;2023-06-24T10:06:56;93966.69;;;29.51;51.04
61345;BME280;47216;42.656;23.232;2023-06-24T10:09:38;93968.22;;;29.49;51.41
61345;BME280;47216;42.656;23.232;2023-06-24T10:12:36;93967.63;;;29.63;50.72
61345;BME280;47216;42.656;23.232;2023-06-24T10:15:09;93956.13;;;29.66;50.19
61345;BME280;47216;42.656;23.232;2023-06-24T10:18:00;93955.28;;;29.62;49.86
61345;BME280;47216;42.656;23.232;2023-06-24T10:20:50;93949.25;;;29.68;51.22
61345;BME280;47216;42.656;23.232;2023-06-24T10:23:23;93946.91;;;29.67;50.50
61345;BME280;47216;42.656;23.232;2023-06-24T10:25:58;93944.84;;;29.83;50.98
61345;BME280;47216;42.656;23.232;2023-06-24T10:31:54;93946.56;;;30.02;49.81
61345;BME280;47216;42.656;23.232;2023-06-24T10:34:43;93928.91;;;30.05;48.32
61345;BME280;47216;42.656;23.232;2023-06-24T10:37:26;93925.88;;;30.10;47.45
61345;BME280;47216;42.656;23.232;2023-06-24T10:40:10;93908.47;;;29.97;47.34
61345;BME280;47216;42.656;23.232;2023-06-24T10:43:00;93901.56;;;29.99;48.50
61345;BME280;47216;42.656;23.232;2023-06-24T10:45:55;93906.00;;;30.22;48.66
61345;BME280;47216;42.656;23.232;2023-06-24T10:48:31;93900.72;;;30.29;48.33
61345;BME280;47216;42.656;23.232;2023-06-24T10:51:16;93900.81;;;30.40;48.39
61345;BME280;47216;42.656;23.232;2023-06-24T10:54:16;93898.53;;;30.45;48.02
61345;BME280;47216;42.656;23.232;2023-06-24T10:57:10;93898.59;;;30.49;48.47
61345;BME280;47216;42.656;23.232;2023-06-24T10:59:47;93895.59;;;30.57;49.54
61345;BME280;47216;42.656;23.232;2023-06-24T11:02:33;93891.31;;;30.53;47.38
61345;BME280;47216;42.656;23.232;2023-06-24T11:05:15;93895.13;;;30.48;47.11
61345;BME280;47216;42.656;23.232;2023-06-24T11:08:05;93895.53;;;30.54;47.04
61345;BME280;47216;42.656;23.232;2023-06-24T11:10:52;93903.31;;;30.63;45.70
61345;BME280;47216;42.656;23.232;2023-06-24T11:13:41;93894.91;;;30.71;46.83
61345;BME280;47216;42.656;23.232;2023-06-24T11:16:25;93906.50;;;30.79;47.41
61345;BME280;47216;42.656;23.232;2023-06-24T11:19:18;93899.22;;;30.83;47.16
61345;BME280;47216;42.656;23.232;2023-06-24T11:22:06;93892.78;;;30.95;44.45
61345;BME280;47216;42.656;23.232;2023-06-24T11:24:48;93892.78;;;30.98;45.68
61345;BME280;47216;42.656;23.232;2023-06-24T11:30:19;93892.44;;;31.04;45.50
61345;BME280;47216;42.656;23.232;2023-06-24T11:33:06;93889.00;;;31.07;43.88
61345;BME280;47216;42.656;23.232;2023-06-24T11:38:36;93883.63;;;31.10;43.68
61345;BME280;47216;42.656;23.232;2023-06-24T11:41:12;93884.06;;;31.19;45.18
61345;BME280;47216;42.656;23.232;2023-06-24T11:43:54;93865.97;;;31.24;45.89
61345;BME280;47216;42.656;23.232;2023-06-24T11:46:31;93875.28;;;31.33;44.85
61345;BME280;47216;42.656;23.232;2023-06-24T11:49:05;93871.03;;;31.29;43.72
61345;BME280;47216;42.656;23.232;2023-06-24T11:54:44;93870.50;;;31.02;44.87
61345;BME280;47216;42.656;23.232;2023-06-24T12:00:32;93848.41;;;30.82;49.69
61345;BME280;47216;42.656;23.232;2023-06-24T12:03:29;93846.44;;;30.71;46.63
61345;BME280;47216;42.656;23.232;2023-06-24T12:06:02;93829.81;;;30.58;46.15
61345;BME280;47216;42.656;23.232;2023-06-24T12:08:59;93827.13;;;30.58;47.57
61345;BME280;47216;42.656;23.232;2023-06-24T12:11:34;93832.88;;;30.57;46.17
61345;BME280;47216;42.656;23.232;2023-06-24T12:14:11;93825.59;;;30.57;48.29
61345;BME280;47216;42.656;23.232;2023-06-24T12:16:52;93833.63;;;30.50;49.54
61345;BME280;47216;42.656;23.232;2023-06-24T12:19:41;93833.53;;;30.40;50.43
61345;BME280;47216;42.656;23.232;2023-06-24T12:22:20;93827.75;;;30.34;52.77
61345;BME280;47216;42.656;23.232;2023-06-24T12:24:59;93829.63;;;30.30;53.24
61345;BME280;47216;42.656;23.232;2023-06-24T12:27:46;93832.22;;;30.19;53.05
61345;BME280;47216;42.656;23.232;2023-06-24T12:30:46;93833.97;;;30.01;53.15
61345;BME280;47216;42.656;23.232;2023-06-24T12:33:49;93829.59;;;29.85;52.98
61345;BME280;47216;42.656;23.232;2023-06-24T12:36:27;93835.31;;;29.77;53.78
61345;BME280;47216;42.656;23.232;2023-06-24T12:39:17;93850.13;;;29.63;54.29
61345;BME280;47216;42.656;23.232;2023-06-24T12:41:57;93852.59;;;29.45;55.45
61345;BME280;47216;42.656;23.232;2023-06-24T12:47:27;93884.59;;;28.97;57.05
61345;BME280;47216;42.656;23.232;2023-06-24T12:50:15;93907.19;;;28.66;60.22
61345;BME280;47216;42.656;23.232;2023-06-24T12:52:57;93913.88;;;28.53;61.60
61345;BME280;47216;42.656;23.232;2023-06-24T12:55:51;93918.69;;;28.43;61.17
61345;BME280;47216;42.656;23.232;2023-06-24T12:58:28;93902.06;;;28.34;61.56
61345;BME280;47216;42.656;23.232;2023-06-24T13:01:15;93900.41;;;28.26;61.82
61345;BME280;47216;42.656;23.232;2023-06-24T13:03:59;93893.59;;;28.09;62.06
61345;BME280;47216;42.656;23.232;2023-06-24T13:06:37;93884.66;;;28.01;62.91
61345;BME280;47216;42.656;23.232;2023-06-24T13:09:27;93881.59;;;27.80;63.72
61345;BME280;47216;42.656;23.232;2023-06-24T13:12:14;93859.75;;;27.58;64.65
61345;BME280;47216;42.656;23.232;2023-06-24T13:15:08;93867.84;;;27.62;65.59
61345;BME280;47216;42.656;23.232;2023-06-24T13:17:46;93879.06;;;27.48;65.65
61345;BME280;47216;42.656;23.232;2023-06-24T13:20:16;93876.38;;;27.29;65.33
61345;BME280;47216;42.656;23.232;2023-06-24T13:23:14;93859.16;;;27.10;62.80
61345;BME280;47216;42.656;23.232;2023-06-24T13:25:46;93866.53;;;27.33;64.98
61345;BME280;47216;42.656;23.232;2023-06-24T13:28:31;93806.91;;;26.97;66.22
61345;BME280;47216;42.656;23.232;2023-06-24T13:31:16;93873.59;;;27.41;66.25
61345;BME280;47216;42.656;23.232;2023-06-24T13:34:05;93906.06;;;27.39;65.65
61345;BME280;47216;42.656;23.232;2023-06-24T13:36:47;93932.50;;;27.41;67.20
61345;BME280;47216;42.656;23.232;2023-06-24T13:39:47;93952.38;;;27.40;67.05
61345;BME280;47216;42.656;23.232;2023-06-24T13:42:22;94000.56;;;27.40;62.92
61345;BME280;47216;42.656;23.232;2023-06-24T13:45:02;94022.16;;;27.47;60.42
61345;BME280;47216;42.656;23.232;2023-06-24T13:47:35;94013.69;;;27.45;59.89
61345;BME280;47216;42.656;23.232;2023-06-24T13:50:05;94037.88;;;27.49;59.08
61345;BME280;47216;42.656;23.232;2023-06-24T13:52:44;94030.78;;;27.21;55.24
61345;BME280;47216;42.656;23.232;2023-06-24T13:55:35;94042.00;;;27.11;52.85
61345;BME280;47216;42.656;23.232;2023-06-24T13:58:27;94032.41;;;26.94;52.58
61345;BME280;47216;42.656;23.232;2023-06-24T14:01:03;94015.50;;;26.90;52.49
61345;BME280;47216;42.656;23.232;2023-06-24T14:04:00;94002.63;;;26.79;54.56
61345;BME280;47216;42.656;23.232;2023-06-24T14:06:37;93998.44;;;26.63;56.54
61345;BME280;47216;42.656;23.232;2023-06-24T14:09:24;93980.34;;;26.44;58.40
61345;BME280;47216;42.656;23.232;2023-06-24T14:12:08;93975.34;;;26.42;59.33
61345;BME280;47216;42.656;23.232;2023-06-24T14:14:48;93959.91;;;26.35;59.46
61345;BME280;47216;42.656;23.232;2023-06-24T14:17:19;93950.66;;;26.33;59.42
61345;BME280;47216;42.656;23.232;2023-06-24T14:20:11;93931.19;;;26.32;60.14
61345;BME280;47216;42.656;23.232;2023-06-24T14:22:58;93928.50;;;26.32;60.75
61345;BME280;47216;42.656;23.232;2023-06-24T14:25:33;93914.53;;;26.23;61.62
61345;BME280;47216;42.656;23.232;2023-06-24T14:28:07;93908.84;;;26.09;62.76
61345;BME280;47216;42.656;23.232;2023-06-24T14:30:55;93898.38;;;26.04;62.99
61345;BME280;47216;42.656;23.232;2023-06-24T14:33:42;93877.44;;;25.90;63.36
61345;BME280;47216;42.656;23.232;2023-06-24T14:36:29;93873.00;;;25.82;64.90
61345;BME280;47216;42.656;23.232;2023-06-24T14:39:08;93868.16;;;25.71;65.27
61345;BME280;47216;42.656;23.232;2023-06-24T14:41:47;93862.38;;;25.53;63.33
61345;BME280;47216;42.656;23.232;2023-06-24T14:47:12;93870.38;;;25.53;64.05
61345;BME280;47216;42.656;23.232;2023-06-24T14:49:53;93876.88;;;25.40;63.52
61345;BME280;47216;42.656;23.232;2023-06-24T14:52:27;93882.69;;;25.30;64.25
61345;BME280;47216;42.656;23.232;2023-06-24T14:55:02;93893.72;;;25.28;65.13
61345;BME280;47216;42.656;23.232;2023-06-24T14:57:51;93906.28;;;25.28;65.16
61345;BME280;47216;42.656;23.232;2023-06-24T15:00:37;93924.09;;;25.24;65.10
61345;BME280;47216;42.656;23.232;2023-06-24T15:03:28;93930.41;;;25.31;65.27
61345;BME280;47216;42.656;23.232;2023-06-24T15:06:04;93949.63;;;25.37;65.40
61345;BME280;47216;42.656;23.232;2023-06-24T15:11:41;93968.75;;;25.51;65.24
61345;BME280;47216;42.656;23.232;2023-06-24T15:14:12;93979.63;;;25.58;65.06
61345;BME280;47216;42.656;23.232;2023-06-24T15:16:52;93989.16;;;25.60;65.23
61345;BME280;47216;42.656;23.232;2023-06-24T15:19:36;93989.66;;;25.49;65.08
61345;BME280;47216;42.656;23.232;2023-06-24T15:22:09;93978.97;;;25.49;64.77
61345;BME280;47216;42.656;23.232;2023-06-24T15:24:42;93964.50;;;25.50;64.87